Time;durP1;ratioP1;P1;durP2;ratioP2;P2;SDS_P1;SDS_P2;PMS_P1;PMS_P2;Temp;Humidity;BMP_temperature;BMP_pressure;BME280_temperature;BME280_humidity;BME280_pressure;Samples;Min_cycle;Max_cycle;Signal;HPM_P1;HPM_P2
2023/04/18 06:58:45;;;;;;;17.90;9.32;;;;;;;7.27;100.00;102438.19;5089626;27;20362;-74
2023/04/18 07:01:11;;;;;;;15.82;9.82;;;;;;;7.34;100.00;102437.56;5086048;28;20033;-74
2023/04/18 07:03:36;;;;;;;16.05;9.63;;;;;;;7.40;100.00;102439.59;5090134;28;20045;-73
2023/04/18 07:06:02;;;;;;;18.95;10.55;;;;;;;7.42;100.00;102440.25;5089322;28;20055;-71
2023/04/18 07:08:27;;;;;;;21.90;10.95;;;;;;;7.44;100.00;102444.50;5089755;28;20422;-76
2023/04/18 07:10:52;;;;;;;13.27;10.10;;;;;;;7.52;100.00;102449.03;5088546;28;20382;-73
2023/04/18 07:13:18;;;;;;;17.33;10.55;;;;;;;7.56;100.00;102444.16;5087204;28;20410;-75
2023/04/18 07:15:43;;;;;;;16.63;10.13;;;;;;;7.56;100.00;102436.94;5089314;28;20028;-73
2023/04/18 07:18:09;;;;;;;14.02;9.60;;;;;;;7.60;100.00;102443.66;5088257;28;20020;-70
2023/04/18 07:20:34;;;;;;;17.20;10.07;;;;;;;7.67;100.00;102448.38;5089812;28;20032;-72
2023/04/18 07:22:59;;;;;;;16.27;10.32;;;;;;;7.71;100.00;102444.34;5088208;28;20036;-73
2023/04/18 07:25:25;;;;;;;16.45;10.20;;;;;;;7.73;100.00;102436.94;5088556;28;20103;-75
2023/04/18 07:27:50;;;;;;;16.02;10.30;;;;;;;7.76;100.00;102442.00;5088666;28;20031;-72
2023/04/18 07:30:15;;;;;;;18.20;10.02;;;;;;;7.79;100.00;102447.91;5089131;28;20024;-74
2023/04/18 07:32:40;;;;;;;13.77;9.93;;;;;;;7.83;100.00;102448.41;5089275;28;20388;-73
2023/04/18 07:35:06;;;;;;;13.75;10.25;;;;;;;7.85;100.00;102451.78;5089393;28;20035;-73
2023/04/18 07:37:32;;;;;;;13.43;9.68;;;;;;;7.92;100.00;102450.09;5089414;28;20027;-76
2023/04/18 07:40:00;;;;;;;13.95;10.52;;;;;;;7.96;100.00;102454.13;5088134;28;20036;-76
2023/04/18 07:42:26;;;;;;;13.68;9.95;;;;;;;7.99;100.00;102448.41;5088044;28;20455;-72
2023/04/18 07:44:58;;;;;;;27.50;11.20;;;;;;;8.03;100.00;102453.47;5087013;28;20028;-73
2023/04/18 07:47:25;;;;;;;22.80;11.18;;;;;;;8.05;100.00;102457.69;5086509;28;20111;-74
2023/04/18 07:49:50;;;;;;;16.90;9.52;;;;;;;8.08;100.00;102462.75;5089263;28;20032;-74
2023/04/18 07:52:16;;;;;;;23.27;9.55;;;;;;;8.11;100.00;102457.00;5087674;28;20399;-74
2023/04/18 07:54:41;;;;;;;25.25;10.52;;;;;;;8.12;100.00;102464.09;5089095;28;20032;-72
2023/04/18 07:57:06;;;;;;;15.13;9.48;;;;;;;8.12;100.00;102458.69;5088474;28;20044;-73
2023/04/18 07:59:32;;;;;;;14.55;9.63;;;;;;;8.18;100.00;102462.56;5087805;28;20484;-71
2023/04/18 08:01:57;;;;;;;18.02;10.05;;;;;;;8.26;100.00;102464.44;5084392;28;20486;-70
2023/04/18 08:04:23;;;;;;;15.15;9.15;;;;;;;8.34;100.00;102469.81;5087748;28;20039;-72
2023/04/18 08:06:48;;;;;;;12.82;9.02;;;;;;;8.41;100.00;102457.31;5088564;28;20078;-74
2023/04/18 08:09:13;;;;;;;13.55;9.43;;;;;;;8.49;100.00;102460.03;5071089;28;20044;-70
2023/04/18 08:11:41;;;;;;;12.60;9.27;;;;;;;8.55;100.00;102476.56;5066094;28;20039;-75
2023/04/18 08:14:06;;;;;;;16.30;9.57;;;;;;;8.58;100.00;102468.94;5068805;28;20046;-70
2023/04/18 08:16:31;;;;;;;15.60;9.48;;;;;;;8.62;98.30;102472.13;5068962;28;20025;-72
2023/04/18 08:18:57;;;;;;;13.52;9.57;;;;;;;8.68;100.00;102475.00;5072197;28;20087;-71
2023/04/18 08:21:22;;;;;;;14.13;9.40;;;;;;;8.74;97.99;102472.63;5074669;28;20387;-74
2023/04/18 08:23:47;;;;;;;14.10;9.40;;;;;;;8.75;98.60;102469.75;5075321;28;20035;-75
2023/04/18 08:26:13;;;;;;;13.63;9.82;;;;;;;8.74;96.04;102473.47;5075457;28;20028;-73
2023/04/18 08:28:38;;;;;;;12.65;9.70;;;;;;;8.71;95.26;102472.97;5078593;28;20032;-74
2023/04/18 08:31:04;;;;;;;15.23;9.85;;;;;;;8.73;98.56;102465.56;5071516;28;20034;-73
2023/04/18 08:33:30;;;;;;;25.33;11.35;;;;;;;8.78;100.00;102468.56;5063134;28;20025;-73
2023/04/18 08:35:55;;;;;;;13.02;10.23;;;;;;;8.81;97.07;102474.44;5074186;28;20078;-74
2023/04/18 08:38:21;;;;;;;20.13;10.32;;;;;;;8.87;100.00;102470.22;5073286;28;20029;-74
2023/04/18 08:40:46;;;;;;;11.52;9.02;;;;;;;8.91;98.24;102476.97;5074805;28;20412;-72
2023/04/18 08:43:13;;;;;;;14.80;9.45;;;;;;;8.90;98.64;102472.56;5074267;28;20032;-74
2023/04/18 08:45:43;;;;;;;18.50;9.20;;;;;;;8.96;97.88;102471.03;5074664;28;20510;-72
2023/04/18 08:48:13;;;;;;;13.60;9.63;;;;;;;8.97;95.67;102470.88;5063359;28;20025;-72
2023/04/18 08:50:42;;;;;;;14.43;9.52;;;;;;;9.04;98.83;102466.47;5063215;28;20535;-76
2023/04/18 08:53:10;;;;;;;11.52;9.18;;;;;;;9.09;99.70;102459.66;5073250;28;20036;-78
2023/04/18 08:55:36;;;;;;;24.05;10.35;;;;;;;9.17;100.00;102470.44;5073515;28;20044;-74
2023/04/18 08:58:05;;;;;;;20.35;10.52;;;;;;;9.25;94.78;102465.00;5068268;28;20041;-75
2023/04/18 09:00:31;;;;;;;73.97;16.42;;;;;;;9.33;95.62;102464.97;5053480;28;20059;-72
2023/04/18 09:02:57;;;;;;;14.85;9.85;;;;;;;9.45;96.75;102459.16;5063781;28;20424;-72
2023/04/18 09:05:25;;;;;;;11.52;9.48;;;;;;;9.54;93.09;102449.97;5066040;28;20490;-70
2023/04/18 09:07:52;;;;;;;16.25;10.35;;;;;;;9.62;98.28;102454.47;5067533;28;20571;-72
2023/04/18 09:10:32;;;;;;;19.75;9.60;;;;;;;9.77;94.98;102458.09;5053564;28;20130;-72
2023/04/18 09:12:59;;;;;;;18.33;9.90;;;;;;;9.82;91.54;102453.00;5061679;28;20036;-73
2023/04/18 09:15:27;;;;;;;24.05;9.88;;;;;;;9.92;87.08;102450.88;5072046;28;20040;-72
2023/04/18 09:17:55;;;;;;;10.73;9.10;;;;;;;10.03;87.86;102446.91;5073390;28;20036;-72
2023/04/18 09:20:33;;;;;;;11.65;9.48;;;;;;;10.11;82.82;102446.84;5072209;28;20040;-71
2023/04/18 09:23:09;;;;;;;13.80;9.57;;;;;;;10.17;78.81;102452.53;5068987;28;20161;-72
2023/04/18 09:25:40;;;;;;;11.18;9.38;;;;;;;10.22;77.26;102447.41;5071720;28;20120;-71
2023/04/18 09:28:26;;;;;;;10.43;9.23;;;;;;;10.21;77.10;102446.59;5072936;28;20043;-71
2023/04/18 09:30:53;;;;;;;11.98;9.63;;;;;;;10.19;77.34;102453.19;5055906;28;20435;-71
2023/04/18 09:33:26;;;;;;;13.10;9.50;;;;;;;10.15;76.22;102441.91;5066584;28;20059;-71
2023/04/18 09:35:52;;;;;;;12.70;8.90;;;;;;;10.20;78.59;102449.47;5053424;28;20027;-73
2023/04/18 09:38:18;;;;;;;10.77;9.15;;;;;;;10.24;78.49;102448.09;5067849;28;20025;-71
2023/04/18 09:40:43;;;;;;;10.32;8.55;;;;;;;10.31;80.46;102448.19;5063844;28;20025;-74
2023/04/18 09:43:21;;;;;;;10.18;8.98;;;;;;;10.31;76.59;102445.47;5067258;28;20519;-74
2023/04/18 09:45:47;;;;;;;10.50;8.55;;;;;;;10.29;74.46;102440.25;5051959;28;20036;-73
2023/04/18 09:48:13;;;;;;;11.27;9.13;;;;;;;10.27;76.62;102443.13;5058594;28;20032;-72
2023/04/18 09:50:40;;;;;;;10.23;8.32;;;;;;;10.27;75.70;102442.31;5056897;28;20040;-73
2023/04/18 09:53:07;;;;;;;11.32;8.80;;;;;;;10.25;76.07;102428.97;5070941;28;20553;-74
2023/04/18 09:55:33;;;;;;;11.40;8.25;;;;;;;10.27;74.87;102426.91;5071721;28;20036;-73
2023/04/18 09:58:03;;;;;;;10.13;7.88;;;;;;;10.32;75.67;102437.19;5071918;28;20041;-75
2023/04/18 10:00:29;;;;;;;11.95;8.02;;;;;;;10.35;74.00;102438.72;5069139;28;20058;-75
2023/04/18 10:03:07;;;;;;;11.13;8.48;;;;;;;10.42;74.64;102428.84;5072461;28;20036;-78
2023/04/18 10:05:34;;;;;;;11.73;7.70;;;;;;;10.46;71.54;102428.28;5053393;28;20112;-72
2023/04/18 10:08:00;;;;;;;16.38;8.15;;;;;;;10.54;74.17;102424.63;5058590;28;20062;-72
2023/04/18 10:10:25;;;;;;;9.63;7.95;;;;;;;10.58;72.34;102428.66;5060270;28;20040;-73
2023/04/18 10:13:01;;;;;;;9.02;7.55;;;;;;;10.56;72.31;102430.69;5072460;28;20060;-72
2023/04/18 10:15:29;;;;;;;13.57;7.13;;;;;;;10.55;71.13;102434.44;5063447;28;20024;-73
2023/04/18 10:17:57;;;;;;;15.50;7.40;;;;;;;10.56;72.36;102433.41;5071438;28;20094;-73
2023/04/18 10:20:25;;;;;;;24.75;8.18;;;;;;;10.63;72.28;102439.75;5065642;28;20510;-73
2023/04/18 10:22:51;;;;;;;12.32;7.60;;;;;;;10.67;72.27;102434.81;5063237;28;20416;-73
2023/04/18 10:25:38;;;;;;;12.73;6.53;;;;;;;10.68;71.87;102433.78;5070215;28;20142;-73
2023/04/18 10:28:05;;;;;;;13.32;6.03;;;;;;;10.66;69.54;102435.84;5066788;28;20037;-73
2023/04/18 10:30:37;;;;;;;6.32;5.68;;;;;;;10.58;69.24;102439.50;5055278;28;20037;-73
2023/04/18 10:33:26;;;;;;;9.13;5.50;;;;;;;10.56;70.17;102440.69;5063447;28;20033;-74
2023/04/18 10:36:15;;;;;;;5.82;5.22;;;;;;;10.54;70.18;102448.16;5066578;28;20032;-74
2023/04/18 10:38:58;;;;;;;7.35;6.10;;;;;;;10.54;70.22;102437.34;5068590;28;20495;-73
2023/04/18 10:41:29;;;;;;;7.30;6.03;;;;;;;10.51;67.88;102448.50;5070336;28;20032;-73
2023/04/18 10:44:10;;;;;;;7.07;5.80;;;;;;;10.54;68.14;102442.75;5064568;28;20036;-71
2023/04/18 10:46:51;;;;;;;7.03;5.93;;;;;;;10.52;67.81;102437.50;5061649;28;20427;-80
2023/04/18 10:49:35;;;;;;;9.45;5.80;;;;;;;10.62;70.00;102440.78;5070375;28;20032;-78
2023/04/18 10:52:16;;;;;;;10.65;6.20;;;;;;;10.71;70.97;102443.41;5071257;28;20029;-78
2023/04/18 10:54:50;;;;;;;9.52;6.07;;;;;;;10.75;68.75;102444.69;5067903;28;20029;-73
2023/04/18 10:57:16;;;;;;;6.72;5.97;;;;;;;10.73;69.73;102439.47;5055283;28;20048;-73
2023/04/18 10:59:46;;;;;;;9.10;6.50;;;;;;;10.76;70.67;102430.97;5056132;28;20433;-72
2023/04/18 11:02:29;;;;;;;12.27;7.10;;;;;;;10.78;69.76;102439.75;5049696;28;20039;-72
2023/04/18 11:05:00;;;;;;;11.93;6.68;;;;;;;10.73;67.99;102452.19;5056464;28;20081;-72
2023/04/18 11:07:38;;;;;;;10.38;6.25;;;;;;;10.72;68.97;102445.94;5069379;28;20020;-72
2023/04/18 11:10:06;;;;;;;6.82;6.13;;;;;;;10.72;69.36;102434.25;5066510;28;20430;-73
2023/04/18 11:12:33;;;;;;;7.72;6.22;;;;;;;10.76;70.51;102439.09;5068805;28;20021;-73
2023/04/18 11:15:00;;;;;;;8.02;6.70;;;;;;;10.75;69.84;102434.72;5071236;28;20116;-72
2023/04/18 11:17:34;;;;;;;8.50;6.97;;;;;;;10.72;71.16;102437.81;5068286;28;20106;-72
2023/04/18 11:20:20;;;;;;;7.90;6.78;;;;;;;10.77;71.75;102437.25;5051326;28;20036;-72
2023/04/18 11:22:49;;;;;;;42.40;10.02;;;;;;;10.82;72.10;102434.81;5050269;28;20037;-72
2023/04/18 11:25:15;;;;;;;28.70;8.23;;;;;;;10.80;72.12;102435.00;5069651;28;20044;-72
2023/04/18 11:27:42;;;;;;;28.55;10.95;;;;;;;10.82;72.17;102429.38;5071561;28;20418;-73
2023/04/18 11:30:09;;;;;;;12.80;7.95;;;;;;;10.80;71.88;102426.88;5071765;28;20064;-73
2023/04/18 11:32:35;;;;;;;9.55;8.10;;;;;;;10.84;71.81;102427.34;5070328;28;20090;-72
2023/04/18 11:35:02;;;;;;;10.50;8.18;;;;;;;10.78;73.79;102428.09;5069742;28;20111;-72
2023/04/18 11:37:27;;;;;;;9.65;8.65;;;;;;;10.81;72.01;102425.84;5069930;28;20040;-73
2023/04/18 11:39:52;;;;;;;13.23;8.52;;;;;;;10.87;71.04;102426.09;5070310;28;20025;-72
2023/04/18 11:42:24;;;;;;;9.82;8.35;;;;;;;10.91;72.69;102430.13;5068241;28;20494;-72
2023/04/18 11:44:49;;;;;;;12.52;9.60;;;;;;;10.92;72.03;102421.00;5074036;28;20028;-72
2023/04/18 11:47:21;;;;;;;10.18;9.05;;;;;;;10.90;72.25;102431.16;5075225;28;20036;-72
2023/04/18 11:49:47;;;;;;;14.10;9.50;;;;;;;10.87;71.71;102442.34;5075155;28;20056;-72
2023/04/18 11:52:12;;;;;;;10.30;8.48;;;;;;;10.84;73.21;102431.91;5075765;28;20036;-72
2023/04/18 11:54:42;;;;;;;18.23;9.40;;;;;;;10.84;73.31;102432.75;5073860;28;20028;-78
2023/04/18 11:57:28;;;;;;;11.13;9.30;;;;;;;10.87;74.67;102431.53;5075124;28;20052;-74
2023/04/18 11:59:58;;;;;;;17.67;9.45;;;;;;;10.93;74.73;102434.34;5072608;28;20089;-79
2023/04/18 12:02:29;;;;;;;14.38;8.68;;;;;;;11.05;75.66;102434.69;5073190;28;20039;-74
2023/04/18 12:04:57;;;;;;;9.73;8.70;;;;;;;11.21;72.57;102430.09;5076154;28;20372;-76
2023/04/18 12:07:40;;;;;;;11.70;9.18;;;;;;;11.27;71.74;102429.31;5073970;28;20028;-76
2023/04/18 12:10:08;;;;;;;11.55;8.77;;;;;;;11.28;72.22;102431.00;5075447;28;20024;-74
2023/04/18 12:12:36;;;;;;;10.65;9.27;;;;;;;11.26;73.16;102425.78;5074834;28;20458;-84
2023/04/18 12:15:06;;;;;;;10.27;9.27;;;;;;;11.22;71.88;102429.91;5072108;28;20380;-72
2023/04/18 12:20:37;;;;;;;21.13;10.40;;;;;;;11.55;70.88;102420.44;5072908;28;20747;-76
2023/04/18 12:23:03;;;;;;;22.35;10.15;;;;;;;11.58;71.36;102430.91;5062227;28;20044;-74
2023/04/18 12:25:35;;;;;;;51.80;12.95;;;;;;;11.51;70.91;102417.28;5073378;28;20476;-75
2023/04/18 12:28:23;;;;;;;36.17;12.55;;;;;;;11.50;70.84;102423.72;5071923;28;20027;-74
2023/04/18 12:30:48;;;;;;;42.67;12.27;;;;;;;11.77;72.57;102426.72;5072959;28;20094;-71
2023/04/18 12:33:18;;;;;;;16.63;11.20;;;;;;;11.81;69.83;102423.41;5074672;28;20029;-77
2023/04/18 12:35:44;;;;;;;22.23;11.40;;;;;;;11.84;68.52;102427.63;5070701;28;20028;-72
2023/04/18 12:38:10;;;;;;;13.45;10.15;;;;;;;11.82;69.67;102425.09;5074660;28;20020;-70
2023/04/18 12:40:38;;;;;;;25.23;12.43;;;;;;;11.74;69.39;102427.94;5075235;28;20549;-76
2023/04/18 12:43:03;;;;;;;30.40;13.25;;;;;;;11.81;70.52;102428.84;5073816;28;20024;-75
2023/04/18 12:45:29;;;;;;;16.20;11.70;;;;;;;11.78;70.59;102420.25;5078102;28;20045;-76
2023/04/18 12:47:54;;;;;;;13.93;11.75;;;;;;;11.85;70.45;102413.84;5073423;28;20115;-75
2023/04/18 12:50:22;;;;;;;12.75;11.27;;;;;;;12.11;69.95;102419.72;5072632;28;20099;-76
2023/04/18 12:52:50;;;;;;;19.10;12.68;;;;;;;12.17;66.64;102416.25;5074873;28;20036;-75
2023/04/18 12:55:15;;;;;;;17.60;12.20;;;;;;;12.09;66.64;102419.09;5073676;28;20072;-75
2023/04/18 12:57:41;;;;;;;21.52;11.60;;;;;;;12.02;70.03;102417.16;5072054;28;20079;-75
2023/04/18 13:00:09;;;;;;;16.88;11.93;;;;;;;12.07;69.46;102418.44;5074503;28;20031;-73
2023/04/18 13:02:36;;;;;;;24.58;15.48;;;;;;;12.03;69.79;102415.28;5071725;28;20059;-73
2023/04/18 13:05:02;;;;;;;14.15;12.10;;;;;;;12.01;71.70;102418.19;5073377;28;20033;-74
2023/04/18 13:07:27;;;;;;;17.02;13.38;;;;;;;12.00;70.94;102427.38;5074113;28;20039;-73
2023/04/18 13:09:53;;;;;;;15.52;11.82;;;;;;;12.00;71.93;102431.94;5071834;28;20052;-75
2023/04/18 13:12:18;;;;;;;21.08;12.32;;;;;;;11.91;73.70;102423.06;5074315;28;20372;-74
2023/04/18 13:14:43;;;;;;;14.82;11.32;;;;;;;11.81;71.97;102428.00;5073984;28;20503;-73
2023/04/18 13:17:09;;;;;;;15.43;13.15;;;;;;;11.76;73.63;102427.75;5073804;28;20072;-74
2023/04/18 13:19:49;;;;;;;16.05;11.75;;;;;;;11.67;75.75;102427.03;5071145;28;20033;-77
2023/04/18 13:22:16;;;;;;;14.57;12.05;;;;;;;11.61;73.96;102428.66;5072153;28;20021;-71
2023/04/18 13:24:41;;;;;;;13.88;11.45;;;;;;;11.61;76.01;102423.22;5071895;28;20028;-75
2023/04/18 13:27:11;;;;;;;16.73;12.50;;;;;;;11.66;77.27;102422.66;5072478;28;20472;-77
2023/04/18 13:29:45;;;;;;;16.52;13.70;;;;;;;11.88;80.02;102418.03;5072007;28;20028;-74
2023/04/18 13:32:11;;;;;;;14.80;12.75;;;;;;;12.25;76.82;102417.97;5072608;28;20085;-76
2023/04/18 13:34:40;;;;;;;15.23;13.43;;;;;;;12.27;71.04;102432.16;5071055;28;20032;-76
2023/04/18 13:37:06;;;;;;;23.23;14.35;;;;;;;12.23;70.91;102421.72;5074383;28;20070;-79
2023/04/18 13:39:32;;;;;;;28.45;14.73;;;;;;;12.21;71.57;102423.78;5072139;28;20028;-71
2023/04/18 13:41:58;;;;;;;20.23;13.80;;;;;;;12.13;71.11;102415.78;5062710;28;20474;-77
2023/04/18 13:44:26;;;;;;;31.15;16.20;;;;;;;12.08;73.80;102420.97;5073134;28;20103;-76
2023/04/18 13:46:51;;;;;;;16.45;14.75;;;;;;;12.00;73.60;102415.66;5073396;28;20037;-75
2023/04/18 13:49:17;;;;;;;30.38;14.60;;;;;;;11.97;72.83;102413.34;5073505;28;20039;-74
2023/04/18 13:51:42;;;;;;;23.35;14.35;;;;;;;11.96;73.15;102411.69;5071873;28;20040;-73
2023/04/18 13:54:08;;;;;;;17.73;13.63;;;;;;;11.91;74.43;102408.69;5072175;28;20059;-75
2023/04/18 13:56:33;;;;;;;17.40;13.90;;;;;;;11.95;74.76;102405.41;5070392;28;20464;-76
2023/04/18 13:58:59;;;;;;;17.48;13.65;;;;;;;11.90;77.91;102410.56;5073159;28;20028;-70
2023/04/18 14:01:24;;;;;;;23.35;12.70;;;;;;;11.85;76.69;102408.44;5069334;28;20111;-75
2023/04/18 14:03:49;;;;;;;16.17;12.90;;;;;;;11.82;78.59;102407.97;5070975;28;20119;-75
2023/04/18 14:06:15;;;;;;;14.30;12.68;;;;;;;11.80;78.86;102408.16;5069526;28;20174;-70
2023/04/18 14:08:52;;;;;;;23.15;13.10;;;;;;;11.81;77.05;102407.13;5073151;28;20032;-72
2023/04/18 14:11:18;;;;;;;18.27;13.77;;;;;;;11.72;79.12;102407.47;5070617;28;20036;-72
2023/04/18 14:13:44;;;;;;;17.65;14.55;;;;;;;11.75;77.74;102413.34;5073147;28;20044;-75
2023/04/18 14:16:13;;;;;;;19.25;15.68;;;;;;;11.77;79.55;102397.72;5072373;28;20024;-73
2023/04/18 14:18:38;;;;;;;21.08;15.52;;;;;;;11.76;80.33;102400.63;5072633;28;20024;-70
2023/04/18 14:21:05;;;;;;;20.05;16.20;;;;;;;11.87;78.88;102400.09;5066046;28;20058;-73
2023/04/18 14:23:30;;;;;;;18.50;16.00;;;;;;;11.92;79.08;102402.22;5072047;28;20029;-71
2023/04/18 14:25:55;;;;;;;20.92;16.25;;;;;;;11.95;78.42;102393.72;5070789;28;20050;-72
2023/04/18 14:28:23;;;;;;;18.15;15.15;;;;;;;11.94;77.29;102390.19;5071399;28;20020;-72
2023/04/18 14:30:50;;;;;;;17.60;15.80;;;;;;;11.93;76.44;102393.09;5071784;28;20028;-72
2023/04/18 14:33:15;;;;;;;16.75;14.93;;;;;;;11.88;77.35;102391.78;5072433;28;20478;-70
2023/04/18 14:35:42;;;;;;;22.80;16.30;;;;;;;11.87;74.76;102395.50;5071553;28;20037;-74
2023/04/18 14:38:25;;;;;;;22.17;15.98;;;;;;;11.97;76.50;102394.34;5072747;28;20116;-77
2023/04/18 14:40:57;;;;;;;18.15;15.77;;;;;;;12.21;73.86;102399.38;5071601;28;20066;-77
2023/04/18 14:43:38;;;;;;;18.17;14.98;;;;;;;12.43;74.46;102393.84;5072015;28;20107;-75
2023/04/18 14:46:11;;;;;;;17.75;15.55;;;;;;;12.59;72.22;102393.53;5071639;28;20115;-75
2023/04/18 14:48:37;;;;;;;18.75;15.18;;;;;;;13.00;71.91;102390.97;5069946;28;20379;-73
2023/04/18 14:51:02;;;;;;;15.85;14.15;;;;;;;13.17;68.76;102388.75;5067191;28;20028;-75
2023/04/18 14:53:27;;;;;;;19.40;15.35;;;;;;;13.08;69.95;102394.38;5070872;28;20031;-76
2023/04/18 14:58:48;;;;;;;20.23;15.60;;;;;;;13.58;68.49;102385.09;5059620;28;20079;-75
2023/04/18 15:01:16;;;;;;;17.40;15.20;;;;;;;14.26;62.81;102384.03;5066337;28;20052;-75
2023/04/18 15:03:41;;;;;;;23.88;16.02;;;;;;;14.57;60.76;102386.06;5071970;28;20021;-75
2023/04/18 15:06:06;;;;;;;18.48;14.98;;;;;;;14.76;60.73;102378.06;5072124;28;20077;-75
2023/04/18 15:08:32;;;;;;;18.65;14.13;;;;;;;14.60;60.39;102373.88;5071922;28;20028;-74
2023/04/18 15:10:57;;;;;;;15.93;14.23;;;;;;;14.42;61.07;102367.25;5072779;28;20521;-73
2023/04/18 15:13:24;;;;;;;15.70;14.00;;;;;;;14.77;59.87;102380.56;5070959;28;20521;-72
2023/04/18 15:16:19;;;;;;;16.40;14.60;;;;;;;15.20;59.63;102382.69;5067580;28;20036;-80
2023/04/18 15:18:45;;;;;;;17.00;14.57;;;;;;;15.46;58.93;102380.84;5070688;28;20513;-75
2023/04/18 15:21:10;;;;;;;18.08;14.60;;;;;;;15.99;55.97;102376.88;5065841;28;20040;-73
2023/04/18 15:23:36;;;;;;;20.35;13.85;;;;;;;16.37;53.96;102370.41;5070769;28;20058;-74
2023/04/18 15:26:19;;;;;;;16.77;13.38;;;;;;;16.67;55.84;102375.13;5072689;28;20078;-77
2023/04/18 15:29:00;;;;;;;16.77;13.25;;;;;;;16.64;54.61;102367.38;5066439;28;20048;-80
2023/04/18 15:31:29;;;;;;;15.38;13.70;;;;;;;16.55;54.26;102368.75;5061864;28;20033;-78
2023/04/18 15:33:55;;;;;;;18.77;12.93;;;;;;;16.79;53.70;102361.53;5052862;28;20074;-75
2023/04/18 15:36:20;;;;;;;18.58;13.93;;;;;;;17.08;52.14;102359.06;5052989;28;20029;-72
2023/04/18 15:38:46;;;;;;;22.73;14.50;;;;;;;17.32;52.48;102360.81;5063499;28;20037;-72
2023/04/18 15:41:11;;;;;;;16.58;13.05;;;;;;;17.51;51.50;102350.63;5056404;28;20029;-75
2023/04/18 15:43:39;;;;;;;19.42;13.40;;;;;;;17.46;50.43;102353.22;5070188;28;20158;-77
2023/04/18 15:46:11;;;;;;;16.83;13.88;;;;;;;16.82;53.40;102356.44;5055871;28;20484;-78
2023/04/18 15:52:23;;;;;;;15.00;13.40;;;;;;;16.66;52.37;102365.25;5012857;28;20548;-76
2023/04/18 15:54:52;;;;;;;17.88;14.35;;;;;;;16.81;52.96;102353.91;5035246;28;20042;-76
2023/04/18 15:57:17;;;;;;;17.85;14.68;;;;;;;16.96;51.45;102353.56;5065858;28;20044;-77
2023/04/18 15:59:43;;;;;;;19.10;13.30;;;;;;;16.91;50.87;102348.78;5082129;28;20391;-78
2023/04/18 16:02:08;;;;;;;15.55;13.57;;;;;;;16.55;51.82;102366.84;5070111;28;20036;-73
2023/04/18 16:04:34;;;;;;;15.82;14.13;;;;;;;16.28;53.33;102361.66;5072918;28;20036;-76
2023/04/18 16:06:59;;;;;;;20.48;14.75;;;;;;;16.25;53.73;102348.47;5075079;28;20029;-77
2023/04/18 16:09:25;;;;;;;17.65;14.27;;;;;;;16.31;54.20;102349.47;5073319;28;20060;-73
2023/04/18 16:11:51;;;;;;;16.50;14.40;;;;;;;16.26;53.83;102360.22;5073013;28;20040;-69
2023/04/18 16:14:17;;;;;;;28.42;14.27;;;;;;;16.08;53.67;102359.16;5069464;28;20021;-69
2023/04/18 16:16:45;;;;;;;15.95;14.07;;;;;;;15.91;54.70;102353.44;5072830;28;20025;-73
2023/04/18 16:19:10;;;;;;;19.15;15.43;;;;;;;15.71;54.19;102361.75;5073057;28;20369;-75
2023/04/18 16:21:36;;;;;;;16.45;13.57;;;;;;;15.57;53.24;102350.09;5074475;28;20054;-75
2023/04/18 16:24:01;;;;;;;15.02;13.43;;;;;;;15.40;54.38;102360.72;5073364;28;20094;-73
2023/04/18 16:26:27;;;;;;;15.07;13.48;;;;;;;15.31;54.84;102356.59;5074266;28;20052;-74
2023/04/18 16:28:59;;;;;;;18.17;13.68;;;;;;;15.12;55.46;102357.56;5073001;28;20028;-77
2023/04/18 16:31:24;;;;;;;14.65;13.15;;;;;;;15.03;54.94;102359.69;5070847;28;20048;-74
2023/04/18 16:33:51;;;;;;;14.07;12.57;;;;;;;15.07;55.07;102356.31;5074076;28;20048;-71
2023/04/18 16:36:16;;;;;;;15.60;12.95;;;;;;;15.00;55.34;102346.50;5074314;28;20082;-74
2023/04/18 16:38:42;;;;;;;14.35;12.88;;;;;;;14.87;56.53;102345.53;5072260;28;20040;-72
2023/04/18 16:41:07;;;;;;;19.88;13.63;;;;;;;14.87;55.74;102350.13;5072950;28;20064;-74
2023/04/18 16:43:43;;;;;;;16.85;14.32;;;;;;;14.78;56.21;102352.28;5071295;28;20059;-78
2023/04/18 16:46:10;;;;;;;17.50;14.38;;;;;;;14.68;56.38;102347.28;5074264;28;20112;-72
2023/04/18 16:48:37;;;;;;;15.57;13.90;;;;;;;14.60;56.46;102347.50;5071311;28;20032;-70
2023/04/18 16:51:03;;;;;;;20.33;14.20;;;;;;;14.54;57.87;102346.47;5069480;28;20040;-69
2023/04/18 16:53:28;;;;;;;16.30;14.45;;;;;;;14.50;57.39;102344.38;5072735;28;20047;-73
2023/04/18 16:55:53;;;;;;;17.83;14.75;;;;;;;14.45;58.47;102342.31;5071855;28;20037;-73
2023/04/18 16:58:20;;;;;;;16.25;14.43;;;;;;;14.40;59.09;102339.38;5073655;28;20047;-75
2023/04/18 17:00:46;;;;;;;15.70;13.65;;;;;;;14.42;58.67;102340.00;5070206;28;20623;-72
2023/04/18 17:03:11;;;;;;;17.10;13.85;;;;;;;14.34;59.92;102341.09;5073053;28;20029;-72
2023/04/18 17:05:38;;;;;;;17.63;15.05;;;;;;;14.39;59.78;102332.28;5072538;28;20071;-72
2023/04/18 17:08:03;;;;;;;17.58;15.75;;;;;;;14.23;59.78;102341.72;5074046;28;20082;-73
2023/04/18 17:10:30;;;;;;;18.77;14.93;;;;;;;14.11;60.42;102336.09;5071233;28;20028;-70
2023/04/18 17:12:56;;;;;;;17.25;15.45;;;;;;;13.99;60.69;102349.53;5073277;28;20037;-69
2023/04/18 17:15:21;;;;;;;18.17;15.02;;;;;;;13.96;60.99;102346.38;5073483;28;20036;-72
2023/04/18 17:17:47;;;;;;;16.00;14.32;;;;;;;13.91;60.67;102347.03;5072479;28;20037;-72
2023/04/18 17:20:12;;;;;;;16.83;14.63;;;;;;;13.80;61.83;102339.50;5073217;28;20112;-69
2023/04/18 17:22:39;;;;;;;16.50;14.65;;;;;;;13.73;62.19;102339.50;5072773;28;20032;-70
2023/04/18 17:25:04;;;;;;;18.30;15.02;;;;;;;13.70;62.97;102331.75;5072782;28;20032;-73
2023/04/18 17:27:30;;;;;;;18.15;15.30;;;;;;;13.62;64.70;102332.81;5073824;28;20020;-73
2023/04/18 17:29:55;;;;;;;17.15;14.70;;;;;;;13.59;64.38;102333.22;5073547;28;20063;-73
2023/04/18 17:32:21;;;;;;;16.10;13.73;;;;;;;13.51;64.21;102336.13;5071590;28;20509;-72
2023/04/18 17:34:46;;;;;;;18.60;14.35;;;;;;;13.42;63.12;102343.69;5073309;28;20039;-73
2023/04/18 17:37:13;;;;;;;15.70;14.00;;;;;;;13.38;62.82;102336.16;5075116;28;20044;-73
2023/04/18 17:40:38;;;;;;;17.25;14.85;;;;;;;13.30;63.53;102329.00;5072592;28;20094;-73
2023/04/18 17:43:03;;;;;;;18.13;15.35;;;;;;;13.17;64.53;102339.84;5072851;28;20028;-74
2023/04/18 17:45:29;;;;;;;16.20;14.48;;;;;;;13.10;64.30;102334.38;5078632;28;20036;-73
2023/04/18 17:47:56;;;;;;;16.08;14.40;;;;;;;13.02;65.38;102342.72;5080585;28;20024;-73
2023/04/18 17:50:21;;;;;;;16.70;15.00;;;;;;;13.01;65.20;102338.31;5071251;28;20044;-73
2023/04/18 17:52:47;;;;;;;19.20;17.20;;;;;;;12.97;66.28;102354.22;5069720;28;20072;-72
2023/04/18 17:55:12;;;;;;;21.73;18.30;;;;;;;12.88;68.71;102345.41;5076759;28;20070;-73
2023/04/18 17:57:37;;;;;;;16.80;14.85;;;;;;;12.84;67.44;102349.56;5072891;28;20048;-72
2023/04/18 18:00:09;;;;;;;17.75;15.30;;;;;;;12.80;67.51;102358.31;5073264;28;20107;-71
2023/04/18 18:02:34;;;;;;;17.25;15.40;;;;;;;12.77;67.46;102352.25;5070644;28;20058;-72
2023/04/18 18:04:59;;;;;;;17.05;14.63;;;;;;;12.74;67.59;102362.66;5072876;28;20448;-73
2023/04/18 18:07:35;;;;;;;17.00;14.27;;;;;;;12.67;68.04;102359.94;5071774;28;20025;-73
2023/04/18 18:10:08;;;;;;;17.33;15.27;;;;;;;12.62;68.64;102364.28;5062919;28;20043;-77
2023/04/18 18:12:35;;;;;;;20.92;15.85;;;;;;;12.59;68.66;102363.66;5071430;28;20388;-75
2023/04/18 18:15:07;;;;;;;17.92;16.08;;;;;;;12.53;69.27;102359.03;5071079;28;20024;-76
2023/04/18 18:17:32;;;;;;;18.02;14.35;;;;;;;12.49;68.86;102355.03;5067698;28;20029;-76
2023/04/18 18:19:58;;;;;;;16.02;14.43;;;;;;;12.41;69.24;102366.09;5073145;28;20412;-78
2023/04/18 18:22:24;;;;;;;17.60;14.82;;;;;;;12.36;70.52;102354.97;5069952;28;20033;-75
2023/04/18 18:24:51;;;;;;;17.08;14.80;;;;;;;12.27;71.15;102367.03;5068723;28;20024;-76
2023/04/18 18:27:19;;;;;;;17.33;15.15;;;;;;;12.31;69.97;102362.88;5061701;28;20060;-76